Time;durP1;ratioP1;P1;durP2;ratioP2;P2;SDS_P1;SDS_P2;PMS_P1;PMS_P2;Temp;Humidity;BMP_temperature;BMP_pressure;BME280_temperature;BME280_humidity;BME280_pressure;Samples;Min_cycle;Max_cycle;Signal;HPM_P1;HPM_P2
2024/01/02 00:00:41;;;;;;;24.30;8.75;;;5.10;93.50;;;;;;4997030;28;20487;-45
2024/01/02 00:03:09;;;;;;;15.55;7.28;;;5.10;93.50;;;;;;5004461;28;20069;-46
2024/01/02 00:05:35;;;;;;;18.38;8.75;;;5.10;93.60;;;;;;4992657;28;20023;-46
2024/01/02 00:08:02;;;;;;;18.88;7.07;;;5.10;93.60;;;;;;5025690;28;20467;-46
2024/01/02 00:10:28;;;;;;;17.88;7.55;;;5.00;93.60;;;;;;5005151;28;20038;-45
2024/01/02 00:12:58;;;;;;;28.08;7.40;;;5.00;93.60;;;;;;5002428;28;20027;-46
2024/01/02 00:15:25;;;;;;;20.23;7.72;;;5.00;93.70;;;;;;5018234;28;20025;-47
2024/01/02 00:17:52;;;;;;;19.45;6.70;;;5.00;93.70;;;;;;5003937;28;20037;-47
2024/01/02 00:20:19;;;;;;;19.52;7.95;;;5.00;93.80;;;;;;4996445;28;20090;-46
2024/01/02 00:22:50;;;;;;;17.88;6.50;;;5.00;93.80;;;;;;4997081;28;20498;-46
2024/01/02 00:25:17;;;;;;;23.08;7.82;;;5.00;93.80;;;;;;4994522;28;20385;-49
2024/01/02 00:27:47;;;;;;;18.65;7.07;;;5.10;93.90;;;;;;5069070;28;20062;-47
2024/01/02 00:30:14;;;;;;;20.60;7.47;;;5.10;93.80;;;;;;4995830;28;20121;-50
2024/01/02 00:32:41;;;;;;;25.88;7.05;;;5.00;93.80;;;;;;5018057;28;20022;-47
2024/01/02 00:35:07;;;;;;;19.42;5.90;;;5.00;93.70;;;;;;4994661;28;20102;-45
2024/01/02 00:37:34;;;;;;;19.90;8.65;;;5.00;93.80;;;;;;5018929;28;20470;-46
2024/01/02 00:40:00;;;;;;;22.27;6.90;;;5.10;93.80;;;;;;4990555;28;20369;-46
2024/01/02 00:42:27;;;;;;;15.80;6.05;;;5.00;93.70;;;;;;5044333;28;20118;-46
2024/01/02 00:44:54;;;;;;;24.33;7.38;;;5.00;93.70;;;;;;5046839;28;20030;-46
2024/01/02 00:47:24;;;;;;;19.00;6.47;;;5.00;93.60;;;;;;5028011;28;20026;-47
2024/01/02 00:49:50;;;;;;;15.77;5.53;;;5.00;93.70;;;;;;5030025;28;20035;-47
2024/01/02 00:52:19;;;;;;;20.15;6.70;;;5.00;93.60;;;;;;5086327;28;20365;-45
2024/01/02 00:54:46;;;;;;;20.13;5.80;;;5.00;93.60;;;;;;4989662;28;20038;-47
2024/01/02 00:57:11;;;;;;;19.40;6.07;;;5.00;93.60;;;;;;5046743;28;20312;-46
2024/01/02 00:59:38;;;;;;;18.85;6.22;;;5.00;93.60;;;;;;5036266;28;20034;-46
2024/01/02 01:02:05;;;;;;;16.58;6.80;;;5.00;93.70;;;;;;5049339;28;20026;-46
2024/01/02 01:04:31;;;;;;;25.80;7.00;;;5.00;93.60;;;;;;5055930;28;20447;-46
2024/01/02 01:06:57;;;;;;;14.93;5.68;;;5.00;93.60;;;;;;4995344;28;20076;-47
2024/01/02 01:09:24;;;;;;;17.08;6.45;;;5.00;93.60;;;;;;4992399;28;20026;-46
2024/01/02 01:11:51;;;;;;;17.77;6.60;;;5.00;93.50;;;;;;4994868;28;20125;-47
2024/01/02 01:14:16;;;;;;;18.08;6.40;;;5.00;93.50;;;;;;5017528;28;20060;-46
2024/01/02 01:16:42;;;;;;;14.45;5.47;;;5.10;93.50;;;;;;5008092;28;20113;-46
2024/01/02 01:19:09;;;;;;;19.25;8.85;;;5.10;93.40;;;;;;5001646;28;20042;-46
2024/01/02 01:21:36;;;;;;;14.52;7.88;;;5.10;93.30;;;;;;5010734;28;20121;-47
2024/01/02 01:24:03;;;;;;;17.65;6.60;;;5.10;93.20;;;;;;5026475;28;20093;-46
2024/01/02 01:26:29;;;;;;;13.30;6.35;;;5.10;93.20;;;;;;5017078;28;20061;-45
2024/01/02 01:28:55;;;;;;;13.20;5.47;;;5.10;93.10;;;;;;5006667;28;20069;-45
2024/01/02 01:31:24;;;;;;;17.10;7.03;;;5.10;93.10;;;;;;5004130;28;20321;-48
2024/01/02 01:33:50;;;;;;;14.15;5.72;;;5.10;93.10;;;;;;4997019;28;20087;-45
2024/01/02 01:36:18;;;;;;;15.05;4.55;;;5.10;93.00;;;;;;5007202;28;20034;-48
2024/01/02 01:38:44;;;;;;;15.35;4.65;;;5.10;93.00;;;;;;5029615;27;20034;-46
2024/01/02 01:41:11;;;;;;;10.88;3.88;;;5.10;92.90;;;;;;4991747;28;20129;-48
2024/01/02 01:43:40;;;;;;;22.73;5.18;;;5.10;92.80;;;;;;4993778;28;20023;-46
2024/01/02 01:46:10;;;;;;;14.90;5.70;;;5.10;92.80;;;;;;4992208;28;20030;-47
2024/01/02 01:48:39;;;;;;;23.88;5.07;;;5.10;92.80;;;;;;4995484;28;20765;-46
2024/01/02 01:51:07;;;;;;;13.15;4.43;;;5.10;92.70;;;;;;4999991;28;20042;-46
2024/01/02 01:53:36;;;;;;;18.55;4.97;;;5.10;92.70;;;;;;4991844;28;20083;-46
2024/01/02 01:56:04;;;;;;;13.85;4.70;;;5.20;92.70;;;;;;4999404;28;20022;-46
2024/01/02 01:58:31;;;;;;;13.00;4.90;;;5.10;92.70;;;;;;4991888;28;20034;-45
2024/01/02 02:01:01;;;;;;;21.45;4.20;;;5.10;92.70;;;;;;4991898;28;20093;-45
2024/01/02 02:03:29;;;;;;;12.60;4.00;;;5.20;92.70;;;;;;5007114;28;20022;-45
2024/01/02 02:05:57;;;;;;;12.00;3.65;;;5.10;92.70;;;;;;5011432;28;20431;-46
2024/01/02 02:08:25;;;;;;;12.77;3.67;;;5.20;92.60;;;;;;4991806;28;20034;-46
2024/01/02 02:10:52;;;;;;;13.63;3.95;;;5.10;92.70;;;;;;4974278;28;20133;-47
2024/01/02 02:13:21;;;;;;;11.60;3.83;;;5.10;92.60;;;;;;4993449;28;20121;-46
2024/01/02 02:15:51;;;;;;;10.85;4.00;;;5.20;92.60;;;;;;5008908;28;20060;-49
2024/01/02 02:18:20;;;;;;;16.63;4.15;;;5.20;92.70;;;;;;4992569;28;20034;-47
2024/01/02 02:20:49;;;;;;;12.77;4.45;;;5.10;92.60;;;;;;5003313;28;20034;-45
2024/01/02 02:23:17;;;;;;;12.15;3.17;;;5.20;92.60;;;;;;4997539;28;20424;-45
2024/01/02 02:25:46;;;;;;;12.05;3.53;;;5.20;92.70;;;;;;4974918;28;20018;-47
2024/01/02 02:28:16;;;;;;;17.00;4.95;;;5.20;92.70;;;;;;4991560;28;20026;-48
2024/01/02 02:30:43;;;;;;;14.50;4.38;;;5.20;92.70;;;;;;4991382;28;20038;-47
2024/01/02 02:33:10;;;;;;;11.57;3.70;;;5.20;92.70;;;;;;4991693;28;20038;-45
2024/01/02 02:35:35;;;;;;;20.42;4.07;;;5.20;92.70;;;;;;4994038;28;20042;-47
2024/01/02 02:38:02;;;;;;;13.43;3.70;;;5.20;92.80;;;;;;5022823;28;20028;-46
2024/01/02 02:40:29;;;;;;;13.63;4.25;;;5.20;92.70;;;;;;5000544;28;20336;-45
2024/01/02 02:42:59;;;;;;;13.32;4.53;;;5.20;92.70;;;;;;4990900;28;20018;-48
2024/01/02 02:45:28;;;;;;;26.88;7.25;;;5.30;92.60;;;;;;4991419;28;20030;-46
2024/01/02 02:47:55;;;;;;;11.93;3.85;;;5.30;92.60;;;;;;4992986;28;20022;-44
2024/01/02 02:50:26;;;;;;;19.63;5.40;;;5.30;92.50;;;;;;5016885;28;20034;-46
2024/01/02 02:52:53;;;;;;;14.65;3.97;;;5.30;92.60;;;;;;5008171;28;20022;-48
2024/01/02 02:55:21;;;;;;;7.82;4.03;;;5.30;92.50;;;;;;4991071;28;20101;-45
2024/01/02 02:57:48;;;;;;;13.73;4.85;;;5.40;92.50;;;;;;4991169;28;20036;-47
2024/01/02 03:00:14;;;;;;;22.65;4.15;;;5.40;92.40;;;;;;4990752;28;20121;-48
2024/01/02 03:02:41;;;;;;;12.38;4.18;;;5.40;92.40;;;;;;4991074;28;20431;-46
2024/01/02 03:05:08;;;;;;;17.17;4.57;;;5.40;92.40;;;;;;5010303;28;20022;-45
2024/01/02 03:07:34;;;;;;;14.13;4.47;;;5.40;92.40;;;;;;4993770;28;20033;-46
2024/01/02 03:10:01;;;;;;;15.02;4.45;;;5.40;92.30;;;;;;5000727;28;20301;-46
2024/01/02 03:12:26;;;;;;;14.63;4.03;;;5.40;92.40;;;;;;4991343;28;20045;-46
2024/01/02 03:14:53;;;;;;;17.92;4.07;;;5.40;92.40;;;;;;4991155;28;20018;-45
2024/01/02 03:17:20;;;;;;;11.85;4.50;;;5.40;92.40;;;;;;4991172;28;20363;-45
2024/01/02 03:19:47;;;;;;;16.73;5.03;;;5.50;92.30;;;;;;4994824;28;20037;-45
2024/01/02 03:22:13;;;;;;;17.23;4.63;;;5.50;92.30;;;;;;5006182;28;20026;-46
2024/01/02 03:24:41;;;;;;;16.38;4.68;;;5.50;92.20;;;;;;5003066;28;20467;-47
2024/01/02 03:27:08;;;;;;;11.27;4.30;;;5.50;92.20;;;;;;4991124;28;20037;-50
2024/01/02 03:29:38;;;;;;;12.90;4.32;;;5.50;92.40;;;;;;4990730;28;20106;-44
2024/01/02 03:32:06;;;;;;;13.85;4.15;;;5.50;92.40;;;;;;4990843;28;20709;-45
2024/01/02 03:34:35;;;;;;;12.73;4.27;;;5.60;92.30;;;;;;5000793;28;20060;-45
2024/01/02 03:37:03;;;;;;;13.68;4.07;;;5.60;92.40;;;;;;4990779;28;20026;-46
2024/01/02 03:39:30;;;;;;;18.13;5.07;;;5.60;92.40;;;;;;5012905;28;20030;-47
2024/01/02 03:41:57;;;;;;;13.70;4.05;;;5.60;92.50;;;;;;5002123;28;20502;-46
2024/01/02 03:44:23;;;;;;;13.82;5.15;;;5.60;92.50;;;;;;4993666;28;20478;-46
2024/01/02 03:46:50;;;;;;;19.10;5.80;;;5.60;92.40;;;;;;4990807;28;20026;-47
2024/01/02 03:49:17;;;;;;;16.98;5.30;;;5.60;92.50;;;;;;4992779;28;20072;-47
2024/01/02 03:51:43;;;;;;;14.57;4.22;;;5.60;92.70;;;;;;4990838;28;20113;-51
2024/01/02 03:54:11;;;;;;;12.68;4.20;;;5.60;92.80;;;;;;4990894;28;20118;-48
2024/01/02 03:56:38;;;;;;;18.25;5.80;;;5.60;92.80;;;;;;4991045;28;20042;-50
2024/01/02 03:59:05;;;;;;;16.83;4.28;;;5.60;92.90;;;;;;4990792;28;20046;-58
2024/01/02 04:01:32;;;;;;;19.60;3.90;;;5.60;93.00;;;;;;4990744;28;20416;-60
2024/01/02 04:04:02;;;;;;;14.38;5.15;;;5.60;93.10;;;;;;4991715;28;20077;-59
2024/01/02 04:06:35;;;;;;;15.45;5.47;;;5.60;93.20;;;;;;4990728;28;20101;-58
2024/01/02 04:09:02;;;;;;;15.98;5.47;;;5.60;93.30;;;;;;4990604;28;20036;-60
2024/01/02 04:11:28;;;;;;;13.48;4.53;;;5.60;93.40;;;;;;4990729;28;20066;-59
2024/01/02 04:13:54;;;;;;;13.18;4.15;;;5.70;93.50;;;;;;4990591;28;20105;-59
2024/01/02 04:16:21;;;;;;;16.30;4.82;;;5.60;93.50;;;;;;4990583;28;20650;-60
2024/01/02 04:18:50;;;;;;;12.93;4.03;;;5.60;93.50;;;;;;5001339;28;20054;-60
2024/01/02 04:21:17;;;;;;;13.98;3.83;;;5.60;93.60;;;;;;5000912;28;20038;-60
2024/01/02 04:23:44;;;;;;;19.75;4.45;;;5.70;93.70;;;;;;4997243;28;20030;-60
2024/01/02 04:26:11;;;;;;;12.68;3.60;;;5.70;93.80;;;;;;4991491;28;20053;-58
2024/01/02 04:28:37;;;;;;;14.00;4.07;;;5.60;93.80;;;;;;5005738;28;20044;-60
2024/01/02 04:31:05;;;;;;;13.88;3.80;;;5.60;93.90;;;;;;4990348;28;20454;-58
2024/01/02 04:33:31;;;;;;;14.30;5.20;;;5.60;94.00;;;;;;4990661;28;20030;-59
2024/01/02 04:35:57;;;;;;;12.27;3.83;;;5.60;94.00;;;;;;5003743;28;20043;-60
2024/01/02 04:38:25;;;;;;;15.73;4.35;;;5.60;94.10;;;;;;5022822;28;20025;-57
2024/01/02 04:40:51;;;;;;;11.43;3.63;;;5.60;94.10;;;;;;5002015;28;20050;-60
2024/01/02 04:43:17;;;;;;;11.98;4.07;;;5.60;94.20;;;;;;4971383;28;20035;-58
2024/01/02 04:45:45;;;;;;;10.07;3.65;;;5.60;94.30;;;;;;4970677;28;20038;-57
2024/01/02 04:48:11;;;;;;;15.90;4.47;;;5.60;94.40;;;;;;4970894;28;20019;-59
2024/01/02 04:50:38;;;;;;;9.68;3.65;;;5.70;94.40;;;;;;5006360;28;20046;-58
2024/01/02 04:53:05;;;;;;;11.50;3.80;;;5.60;94.40;;;;;;4980979;28;20041;-59
2024/01/02 04:55:32;;;;;;;13.90;4.03;;;5.60;94.50;;;;;;4973874;28;20039;-59
2024/01/02 04:58:00;;;;;;;11.45;3.03;;;5.60;94.50;;;;;;4972180;28;20063;-57
2024/01/02 05:00:27;;;;;;;11.88;3.55;;;5.60;94.60;;;;;;4976864;28;20047;-58
2024/01/02 05:02:53;;;;;;;11.60;4.18;;;5.60;94.70;;;;;;4970659;28;20110;-57
2024/01/02 05:05:20;;;;;;;11.40;3.17;;;5.60;94.70;;;;;;4978382;28;20114;-57
2024/01/02 05:07:46;;;;;;;9.35;3.35;;;5.60;94.70;;;;;;4970704;28;20019;-59
2024/01/02 05:10:13;;;;;;;10.45;4.15;;;5.60;94.80;;;;;;4980055;28;20072;-57
2024/01/02 05:12:40;;;;;;;16.77;3.90;;;5.60;94.80;;;;;;4977302;28;20042;-54
2024/01/02 05:15:07;;;;;;;13.50;3.35;;;5.70;94.80;;;;;;4975789;28;20042;-58
2024/01/02 05:17:37;;;;;;;14.30;4.07;;;5.70;94.90;;;;;;4974362;28;20038;-57
2024/01/02 05:20:05;;;;;;;12.40;3.80;;;5.60;94.90;;;;;;4981146;28;20449;-57
2024/01/02 05:22:32;;;;;;;16.17;3.47;;;5.70;95.00;;;;;;4969724;28;20050;-59
2024/01/02 05:24:59;;;;;;;11.02;4.00;;;5.70;94.90;;;;;;4969930;28;20097;-59
2024/01/02 05:27:27;;;;;;;20.90;3.75;;;5.70;95.00;;;;;;4970799;28;20023;-56
2024/01/02 05:29:54;;;;;;;8.40;2.65;;;5.70;95.00;;;;;;4971887;28;20084;-54
2024/01/02 05:32:20;;;;;;;14.73;5.00;;;5.70;95.00;;;;;;4974049;28;20371;-59
2024/01/02 05:34:46;;;;;;;18.92;3.67;;;5.70;95.00;;;;;;4974976;28;20035;-55
2024/01/02 05:37:15;;;;;;;12.93;4.20;;;5.70;95.00;;;;;;4974052;28;20367;-57
2024/01/02 05:39:43;;;;;;;13.30;4.03;;;5.70;95.10;;;;;;4975574;28;20041;-56
2024/01/02 05:42:09;;;;;;;11.85;4.50;;;5.70;95.20;;;;;;4995395;28;20069;-57
2024/01/02 05:44:36;;;;;;;10.02;4.10;;;5.70;95.10;;;;;;5003405;28;20018;-55
2024/01/02 05:47:03;;;;;;;15.50;4.20;;;5.70;95.20;;;;;;4995911;28;20033;-56
2024/01/02 05:49:29;;;;;;;15.48;4.07;;;5.70;95.20;;;;;;5002717;28;20052;-56
2024/01/02 05:51:57;;;;;;;11.13;4.53;;;5.70;95.20;;;;;;4998305;28;20396;-57
2024/01/02 05:54:24;;;;;;;14.77;4.03;;;5.70;95.20;;;;;;4998217;28;20419;-56
2024/01/02 05:56:51;;;;;;;10.70;4.13;;;5.70;95.30;;;;;;5003941;28;20022;-57
2024/01/02 05:59:18;;;;;;;11.25;3.65;;;5.70;95.30;;;;;;5001533;28;20030;-54
2024/01/02 06:01:48;;;;;;;9.80;3.58;;;5.70;95.40;;;;;;4996669;28;20108;-56
2024/01/02 06:04:15;;;;;;;;;;;5.80;95.40;;;;;;5005750;28;20026;-57
2024/01/02 06:06:42;;;;;;;12.32;4.15;;;5.70;95.30;;;;;;4992798;28;19909;-57
2024/01/02 06:09:08;;;;;;;8.55;3.20;;;5.70;95.40;;;;;;4992925;28;20101;-58
2024/01/02 06:11:35;;;;;;;12.30;3.80;;;5.70;95.40;;;;;;5009449;28;20331;-57
2024/01/02 06:14:01;;;;;;;19.13;5.93;;;5.70;95.40;;;;;;5000508;28;20101;-56
2024/01/02 06:16:29;;;;;;;14.32;3.63;;;5.70;95.40;;;;;;5003361;28;20070;-58
2024/01/02 06:18:59;;;;;;;9.32;4.10;;;5.70;95.40;;;;;;4995783;28;20034;-56
2024/01/02 06:21:27;;;;;;;11.18;3.60;;;5.70;95.40;;;;;;5000378;28;20041;-58
2024/01/02 06:23:53;;;;;;;14.23;3.33;;;5.70;95.40;;;;;;5015374;28;20025;-57
2024/01/02 06:26:20;;;;;;;19.52;4.78;;;5.70;95.40;;;;;;5004417;28;20053;-58
2024/01/02 06:28:45;;;;;;;9.50;3.30;;;5.70;95.40;;;;;;4998912;28;20431;-58
2024/01/02 06:31:12;;;;;;;12.63;4.07;;;5.70;95.40;;;;;;5017083;27;20102;-56
2024/01/02 06:33:44;;;;;;;13.48;3.75;;;5.70;95.50;;;;;;5012456;28;20021;-55
2024/01/02 06:36:11;;;;;;;7.55;3.10;;;5.60;95.50;;;;;;5001277;28;20062;-59
2024/01/02 06:38:41;;;;;;;10.70;3.35;;;5.70;95.50;;;;;;5001653;28;20447;-57
2024/01/02 06:41:06;;;;;;;12.30;3.38;;;5.70;95.50;;;;;;5000551;28;20100;-58
2024/01/02 06:43:33;;;;;;;12.23;4.30;;;5.60;95.50;;;;;;4992039;28;20446;-58
2024/01/02 06:46:04;;;;;;;12.45;3.13;;;5.60;95.50;;;;;;5007049;28;20037;-59
2024/01/02 06:48:31;;;;;;;13.68;3.92;;;5.60;95.50;;;;;;4992005;28;20045;-58
2024/01/02 06:50:58;;;;;;;10.82;4.38;;;5.60;95.60;;;;;;5002844;28;20648;-58
2024/01/02 06:53:25;;;;;;;7.40;3.72;;;5.60;95.60;;;;;;5014617;28;20451;-59
2024/01/02 06:55:53;;;;;;;7.60;4.80;;;5.60;95.60;;;;;;4993526;28;20045;-57
2024/01/02 06:58:20;;;;;;;14.00;3.65;;;5.60;95.60;;;;;;4992907;28;20448;-56
2024/01/02 07:00:49;;;;;;;9.98;4.72;;;5.60;95.60;;;;;;5006945;28;20038;-57
2024/01/02 07:03:17;;;;;;;6.38;2.88;;;5.60;95.60;;;;;;5035037;28;20030;-57
2024/01/02 07:05:44;;;;;;;11.35;2.85;;;5.60;95.60;;;;;;4997014;28;20117;-58
2024/01/02 07:08:11;;;;;;;7.40;2.33;;;5.60;95.60;;;;;;5014709;28;20018;-53
2024/01/02 07:10:41;;;;;;;10.77;3.22;;;5.60;95.60;;;;;;5008060;28;20038;-58
2024/01/02 07:13:10;;;;;;;14.13;2.80;;;5.60;95.60;;;;;;5017077;28;20517;-57
2024/01/02 07:15:37;;;;;;;10.38;3.10;;;5.60;95.60;;;;;;5026854;28;20394;-57
2024/01/02 07:18:04;;;;;;;8.63;3.28;;;5.60;95.60;;;;;;5024883;28;20479;-56
2024/01/02 07:20:31;;;;;;;11.40;2.70;;;5.60;95.60;;;;;;4983726;28;20073;-53
2024/01/02 07:22:58;;;;;;;8.10;2.60;;;5.60;95.50;;;;;;4998111;28;20026;-55
2024/01/02 07:25:29;;;;;;;6.93;2.53;;;5.60;95.50;;;;;;5011606;28;20053;-57
2024/01/02 07:27:54;;;;;;;8.50;2.13;;;5.60;95.50;;;;;;5009682;28;20030;-56
2024/01/02 07:30:21;;;;;;;8.02;2.40;;;5.60;95.50;;;;;;5000037;28;20106;-58
2024/01/02 07:32:48;;;;;;;8.80;2.90;;;5.60;95.50;;;;;;5033117;28;20480;-54
2024/01/02 07:35:15;;;;;;;6.70;2.10;;;5.60;95.50;;;;;;5007581;28;20044;-58
2024/01/02 07:37:41;;;;;;;6.75;2.25;;;5.60;95.50;;;;;;5010125;28;20023;-55
2024/01/02 07:40:07;;;;;;;12.57;2.58;;;5.70;95.60;;;;;;5048129;28;20387;-56
2024/01/02 07:42:33;;;;;;;10.80;2.65;;;5.60;95.50;;;;;;5053705;28;20038;-57
2024/01/02 07:45:00;;;;;;;6.57;2.25;;;5.60;95.50;;;;;;4993938;28;20091;-55
2024/01/02 07:47:26;;;;;;;8.90;2.20;;;5.60;95.50;;;;;;5014718;28;20026;-57
2024/01/02 07:49:53;;;;;;;5.65;2.15;;;5.60;95.50;;;;;;5022797;28;20027;-55
2024/01/02 07:52:19;;;;;;;8.82;2.10;;;5.60;95.50;;;;;;5030291;28;20582;-59
2024/01/02 07:54:45;;;;;;;13.73;2.63;;;5.60;95.40;;;;;;5033123;28;20023;-59
2024/01/02 07:57:12;;;;;;;4.03;2.03;;;5.70;95.50;;;;;;4998145;28;20050;-58
2024/01/02 07:59:37;;;;;;;6.50;1.75;;;5.60;95.40;;;;;;5039741;28;20036;-57
2024/01/02 08:02:04;;;;;;;7.47;1.90;;;5.70;95.50;;;;;;4999227;28;20038;-57
2024/01/02 08:04:30;;;;;;;11.48;1.90;;;5.70;95.50;;;;;;5004658;28;20034;-58
2024/01/02 08:06:57;;;;;;;6.75;2.88;;;5.60;95.40;;;;;;4992062;28;20049;-56
2024/01/02 08:09:25;;;;;;;9.65;1.95;;;5.60;95.50;;;;;;4993143;28;20065;-53
2024/01/02 08:11:51;;;;;;;6.85;2.08;;;5.70;95.50;;;;;;4989617;28;20087;-57
2024/01/02 08:14:17;;;;;;;6.78;2.40;;;5.70;95.50;;;;;;4998072;28;20026;-57
2024/01/02 08:16:44;;;;;;;4.05;1.90;;;5.60;95.50;;;;;;5014707;28;20048;-58
2024/01/02 08:19:14;;;;;;;6.93;1.95;;;5.70;95.50;;;;;;5002585;28;20026;-56
2024/01/02 08:21:41;;;;;;;10.25;3.03;;;5.70;95.50;;;;;;4994864;28;20026;-54
2024/01/02 08:24:12;;;;;;;7.40;1.90;;;5.70;95.60;;;;;;4996539;28;20042;-57
2024/01/02 08:26:38;;;;;;;5.22;1.95;;;5.70;95.60;;;;;;5000525;28;20453;-57
2024/01/02 08:29:06;;;;;;;5.97;3.25;;;5.70;95.60;;;;;;5010014;28;20049;-55
2024/01/02 08:31:32;;;;;;;7.78;2.30;;;5.70;95.60;;;;;;4997021;28;20054;-58
2024/01/02 08:33:59;;;;;;;5.97;2.70;;;5.70;95.70;;;;;;4991882;28;20344;-55
2024/01/02 08:36:26;;;;;;;6.38;2.30;;;5.70;95.70;;;;;;5014711;28;20026;-54
2024/01/02 08:38:53;;;;;;;6.63;2.10;;;5.70;95.70;;;;;;5002035;28;20041;-57
2024/01/02 08:41:20;;;;;;;6.63;2.38;;;5.70;95.70;;;;;;5003788;28;20341;-53
2024/01/02 08:43:47;;;;;;;6.63;3.05;;;5.70;95.80;;;;;;5003272;28;20079;-51
2024/01/02 08:46:14;;;;;;;7.05;3.70;;;5.80;95.90;;;;;;4997118;28;20585;-53
2024/01/02 08:48:41;;;;;;;7.15;2.47;;;5.70;95.80;;;;;;5002413;28;20494;-54
2024/01/02 08:51:08;;;;;;;7.25;2.65;;;5.80;95.90;;;;;;5019029;28;20026;-58
2024/01/02 08:53:37;;;;;;;8.88;2.60;;;5.80;95.90;;;;;;4996824;28;20436;-55
2024/01/02 08:56:04;;;;;;;4.82;2.65;;;5.80;95.90;;;;;;5009510;28;20042;-57
2024/01/02 08:58:33;;;;;;;5.63;2.40;;;5.90;95.90;;;;;;4997342;28;20046;-55
2024/01/02 09:01:01;;;;;;;4.47;2.30;;;5.80;95.90;;;;;;4994953;28;20655;-56
2024/01/02 09:03:30;;;;;;;5.05;2.22;;;5.90;95.90;;;;;;4996016;28;20266;-54
2024/01/02 09:05:57;;;;;;;7.13;2.88;;;5.90;95.90;;;;;;4998742;28;20368;-54
2024/01/02 09:08:24;;;;;;;4.85;2.38;;;5.90;95.90;;;;;;4995140;28;20107;-57
2024/01/02 09:10:51;;;;;;;4.43;1.92;;;5.90;95.90;;;;;;5001631;28;20029;-57
2024/01/02 09:13:18;;;;;;;6.85;2.45;;;5.90;95.90;;;;;;4999862;28;20022;-58
2024/01/02 09:15:44;;;;;;;5.35;1.58;;;5.90;95.90;;;;;;4991990;28;20058;-58
2024/01/02 09:18:14;;;;;;;6.88;2.22;;;5.90;96.00;;;;;;4994913;28;20499;-56
2024/01/02 09:20:42;;;;;;;4.95;2.03;;;5.90;96.00;;;;;;4994205;28;20062;-54
2024/01/02 09:23:09;;;;;;;6.22;1.77;;;5.80;96.00;;;;;;5020433;28;20514;-57
2024/01/02 09:25:40;;;;;;;3.13;1.67;;;5.90;96.00;;;;;;5002934;28;21191;-57
2024/01/02 09:28:10;;;;;;;6.38;2.08;;;5.90;96.10;;;;;;5004165;28;20026;-55
2024/01/02 09:30:37;;;;;;;5.25;1.83;;;5.90;96.10;;;;;;5036912;28;20038;-57
2024/01/02 09:33:07;;;;;;;4.65;1.92;;;5.90;96.10;;;;;;4997337;28;20369;-58
2024/01/02 09:35:36;;;;;;;3.88;1.83;;;5.90;96.10;;;;;;5003983;28;20077;-57
2024/01/02 09:38:06;;;;;;;6.60;2.20;;;5.90;96.10;;;;;;5017070;28;20361;-59
2024/01/02 09:40:53;;;;;;;4.13;2.03;;;5.90;96.20;;;;;;5012834;28;20047;-59
2024/01/02 09:43:51;;;;;;;3.47;1.60;;;5.90;96.20;;;;;;4996609;28;20061;-59
2024/01/02 09:46:47;;;;;;;4.07;1.95;;;6.00;96.20;;;;;;5087482;27;20029;-51
2024/01/02 09:49:26;;;;;;;7.43;3.58;;;6.00;96.20;;;;;;4995108;28;20069;-55
2024/01/02 09:52:14;;;;;;;4.82;1.60;;;6.00;96.20;;;;;;4994373;28;20108;-54
2024/01/02 09:54:58;;;;;;;3.42;1.13;;;6.00;96.30;;;;;;5007138;28;20034;-55
2024/01/02 09:57:40;;;;;;;2.50;1.20;;;6.00;96.20;;;;;;5011305;28;20101;-53
2024/01/02 10:00:34;;;;;;;3.60;1.58;;;6.00;96.20;;;;;;4994903;28;20040;-55
2024/01/02 10:03:30;;;;;;;3.10;1.38;;;6.00;96.20;;;;;;5000324;28;20038;-56
2024/01/02 10:06:21;;;;;;;2.95;1.30;;;6.10;96.20;;;;;;5003487;28;20095;-49
2024/01/02 10:09:25;;;;;;;1.95;1.10;;;6.10;96.10;;;;;;5000869;28;20097;-52
2024/01/02 10:12:37;;;;;;;2.85;1.77;;;6.10;96.10;;;;;;4997021;28;20057;-52
2024/01/02 10:15:35;;;;;;;2.80;1.60;;;6.10;96.10;;;;;;4994068;28;20030;-54
2024/01/02 10:18:42;;;;;;;3.53;1.55;;;6.20;96.20;;;;;;4993469;28;20375;-55
2024/01/02 10:21:38;;;;;;;2.28;1.33;;;6.20;96.20;;;;;;4995577;28;20030;-52
2024/01/02 10:24:07;;;;;;;2.28;1.40;;;6.30;96.10;;;;;;4985656;28;20034;-54
2024/01/02 10:26:44;;;;;;;3.13;1.60;;;6.30;96.10;;;;;;4985704;28;20762;-56
2024/01/02 10:29:30;;;;;;;14.80;1.98;;;6.30;96.10;;;;;;5006327;28;20030;-51
2024/01/02 10:32:13;;;;;;;3.25;2.95;;;6.30;96.10;;;;;;4990187;28;20391;-54
2024/01/02 10:35:04;;;;;;;2.40;1.50;;;6.30;96.00;;;;;;4986747;28;20026;-55
2024/01/02 10:37:39;;;;;;;3.78;1.70;;;6.30;96.00;;;;;;5002891;28;20047;-56
2024/01/02 10:40:07;;;;;;;2.05;1.33;;;6.30;96.00;;;;;;5092565;28;20526;-56
2024/01/02 10:43:00;;;;;;;2.58;1.75;;;6.30;95.90;;;;;;4993839;28;20525;-51
2024/01/02 10:45:52;;;;;;;2.72;1.65;;;6.20;96.00;;;;;;5011293;28;20022;-52
2024/01/02 10:48:47;;;;;;;3.63;1.80;;;6.30;96.10;;;;;;5010315;28;20025;-54
2024/01/02 10:51:38;;;;;;;3.80;2.25;;;6.40;96.00;;;;;;5011513;28;20365;-52
2024/01/02 10:54:09;;;;;;;3.55;2.00;;;6.40;96.00;;;;;;4996881;28;20127;-49
2024/01/02 10:57:00;;;;;;;4.18;2.17;;;6.40;96.00;;;;;;4982464;28;20030;-50
2024/01/02 10:59:55;;;;;;;3.92;2.50;;;6.40;95.90;;;;;;5000281;28;20026;-50
2024/01/02 11:02:35;;;;;;;3.20;1.95;;;6.40;96.00;;;;;;4998194;28;20026;-50
2024/01/02 11:05:18;;;;;;;3.70;2.35;;;6.40;95.90;;;;;;4998946;28;20112;-52
2024/01/02 11:07:52;;;;;;;4.75;2.58;;;6.50;96.00;;;;;;4995624;28;20033;-50
2024/01/02 11:10:23;;;;;;;4.22;2.30;;;6.50;96.00;;;;;;5000189;28;20030;-52
2024/01/02 11:13:05;;;;;;;3.47;2.10;;;6.50;95.90;;;;;;4998098;28;20042;-47
2024/01/02 11:15:39;;;;;;;4.82;2.60;;;6.60;96.00;;;;;;4995795;28;20065;-47
2024/01/02 11:18:07;;;;;;;4.03;2.72;;;6.60;96.00;;;;;;5002318;28;20125;-49
2024/01/02 11:21:04;;;;;;;3.55;2.70;;;6.60;96.00;;;;;;4995446;28;20079;-54
2024/01/02 11:23:39;;;;;;;4.45;2.92;;;6.60;96.00;;;;;;4999207;28;20025;-56
2024/01/02 11:26:27;;;;;;;6.25;3.13;;;6.60;96.00;;;;;;4994080;28;20039;-53
2024/01/02 11:29:03;;;;;;;5.57;2.90;;;6.70;96.00;;;;;;5004916;28;20048;-53
2024/01/02 11:31:32;;;;;;;4.28;2.95;;;6.70;96.00;;;;;;4997671;28;20347;-51
2024/01/02 11:34:07;;;;;;;3.47;2.35;;;6.70;96.10;;;;;;4991351;28;20038;-57
2024/01/02 11:36:51;;;;;;;3.65;2.85;;;6.70;96.00;;;;;;4999069;28;20026;-52
2024/01/02 11:39:41;;;;;;;3.83;2.40;;;6.70;96.00;;;;;;5010871;28;20099;-55
2024/01/02 11:42:44;;;;;;;3.92;2.60;;;6.70;96.00;;;;;;4999339;28;20050;-52
2024/01/02 11:45:17;;;;;;;2.97;2.00;;;6.70;96.00;;;;;;4997864;28;20026;-59
2024/01/02 11:47:59;;;;;;;2.97;2.13;;;6.70;96.00;;;;;;5001010;28;20076;-58
2024/01/02 11:50:41;;;;;;;3.40;2.20;;;6.70;96.10;;;;;;4991728;28;20056;-58
2024/01/02 11:53:42;;;;;;;3.50;1.90;;;6.70;96.10;;;;;;4992939;28;20482;-58
2024/01/02 11:56:12;;;;;;;4.38;2.35;;;6.70;96.10;;;;;;4991310;28;20038;-59
2024/01/02 11:59:11;;;;;;;4.82;2.38;;;6.70;96.10;;;;;;4994739;28;20413;-52
2024/01/02 12:02:03;;;;;;;3.25;1.95;;;6.70;96.20;;;;;;4995655;28;20030;-56
2024/01/02 12:05:00;;;;;;;4.18;2.45;;;6.70;96.20;;;;;;4996223;28;20223;-55
2024/01/02 12:07:28;;;;;;;4.63;2.88;;;6.80;96.30;;;;;;5003455;28;20069;-57
2024/01/02 12:09:57;;;;;;;4.45;2.60;;;6.80;96.30;;;;;;4993675;28;20031;-50
2024/01/02 12:12:48;;;;;;;5.90;2.85;;;6.90;96.30;;;;;;4991661;28;20062;-49
2024/01/02 12:15:26;;;;;;;3.97;2.85;;;6.80;96.20;;;;;;4991873;28;20038;-51
2024/01/02 12:18:11;;;;;;;6.35;3.38;;;6.80;96.30;;;;;;4995499;28;20025;-49
2024/01/02 12:20:45;;;;;;;3.97;2.78;;;6.90;96.40;;;;;;4998815;28;20376;-49
2024/01/02 12:23:14;;;;;;;4.78;2.85;;;6.90;96.40;;;;;;4998774;28;20027;-50
2024/01/02 12:25:46;;;;;;;4.65;3.67;;;6.90;96.40;;;;;;5002215;28;20443;-49
2024/01/02 12:28:14;;;;;;;7.60;3.20;;;6.90;96.40;;;;;;4992019;28;20022;-49
2024/01/02 12:31:11;;;;;;;10.63;4.10;;;7.00;96.40;;;;;;4991659;28;20037;-47
2024/01/02 12:33:45;;;;;;;7.45;3.40;;;7.00;96.40;;;;;;5004419;28;20066;-47
2024/01/02 12:36:32;;;;;;;6.07;4.05;;;7.10;96.40;;;;;;5011103;28;20034;-48
2024/01/02 12:39:05;;;;;;;5.30;4.45;;;7.10;96.60;;;;;;4997366;28;20343;-47
2024/01/02 12:41:39;;;;;;;8.73;4.50;;;7.20;96.50;;;;;;4992852;28;20348;-49
2024/01/02 12:44:08;;;;;;;8.13;4.70;;;7.20;96.60;;;;;;4994429;28;20045;-47
2024/01/02 12:46:54;;;;;;;5.53;4.40;;;7.30;96.50;;;;;;5003953;28;20030;-46
2024/01/02 12:49:29;;;;;;;11.10;5.38;;;7.30;96.60;;;;;;4991167;28;20117;-46
2024/01/02 12:52:05;;;;;;;8.35;5.68;;;7.40;96.60;;;;;;4996570;28;20056;-46
2024/01/02 12:54:40;;;;;;;12.02;5.63;;;7.40;96.60;;;;;;4989034;28;20026;-46
2024/01/02 12:57:07;;;;;;;10.23;5.80;;;7.40;96.60;;;;;;4989946;28;20035;-47
2024/01/02 12:59:36;;;;;;;8.45;5.82;;;7.40;96.60;;;;;;4998349;28;20828;-46
2024/01/02 13:02:07;;;;;;;8.65;5.85;;;7.40;96.70;;;;;;4996384;28;20066;-48
2024/01/02 13:04:37;;;;;;;12.18;6.70;;;7.40;96.70;;;;;;4995355;28;20030;-46
2024/01/02 13:07:07;;;;;;;9.73;6.63;;;7.40;96.60;;;;;;4999830;28;20097;-46
2024/01/02 13:09:36;;;;;;;12.35;6.50;;;7.50;96.70;;;;;;4995308;28;20045;-45
2024/01/02 13:12:04;;;;;;;;;;;7.60;96.70;;;;;;5000538;28;20041;-47